Time;durP1;ratioP1;P1;durP2;ratioP2;P2;SDS_P1;SDS_P2;PMS_P1;PMS_P2;Temp;Humidity;BMP_temperature;BMP_pressure;BME280_temperature;BME280_humidity;BME280_pressure;Samples;Min_cycle;Max_cycle;Signal;HPM_P1;HPM_P2
2023/01/13 00:01:50;;;;;;;5.80;5.10;;;9.40;99.90;;;;;;5012285;28;20199;-74
2023/01/13 00:04:18;;;;;;;5.30;4.80;;;9.40;99.90;;;;;;5010755;28;20596;-74
2023/01/13 00:06:47;;;;;;;6.90;4.50;;;9.30;99.90;;;;;;5012473;28;20208;-74
2023/01/13 00:09:16;;;;;;;6.33;4.73;;;9.40;99.90;;;;;;5012201;28;20204;-74
2023/01/13 00:11:45;;;;;;;5.60;5.10;;;9.40;99.90;;;;;;5012384;28;20188;-74
2023/01/13 00:14:13;;;;;;;8.50;4.83;;;9.40;99.90;;;;;;5012359;28;20195;-74
2023/01/13 00:16:43;;;;;;;4.93;4.10;;;9.40;99.90;;;;;;5012290;28;20274;-75
2023/01/13 00:19:12;;;;;;;7.00;4.77;;;9.40;99.90;;;;;;5011291;28;20203;-73
2023/01/13 00:21:41;;;;;;;4.97;4.43;;;9.30;99.90;;;;;;5012398;28;20665;-74
2023/01/13 00:24:10;;;;;;;5.80;4.27;;;9.30;99.90;;;;;;5012005;28;20197;-73
2023/01/13 00:26:39;;;;;;;5.23;4.73;;;9.30;99.90;;;;;;5010979;28;20233;-74
2023/01/13 00:29:08;;;;;;;6.13;5.30;;;9.40;99.90;;;;;;5012226;28;20246;-73
2023/01/13 00:31:36;;;;;;;5.63;4.67;;;9.40;99.90;;;;;;5010738;28;20208;-73
2023/01/13 00:34:06;;;;;;;5.17;4.23;;;9.30;99.90;;;;;;5011986;28;20188;-73
2023/01/13 00:36:35;;;;;;;6.13;4.97;;;9.30;99.90;;;;;;5012290;28;20204;-73
2023/01/13 00:39:04;;;;;;;7.20;5.47;;;9.30;99.90;;;;;;5011934;28;20199;-73
2023/01/13 00:43:21;;;;;;;5.43;4.80;;;9.30;99.90;;;;;;5012001;28;20204;-73
2023/01/13 00:44:21;;;;;;;5.60;5.10;;;9.30;99.90;;;;;;5012011;28;20224;-73
2023/01/13 00:46:49;;;;;;;8.50;4.90;;;9.30;99.90;;;;;;5012175;28;20283;-73
2023/01/13 00:49:20;;;;;;;6.17;5.30;;;9.30;99.90;;;;;;5011990;28;20201;-73
2023/01/13 00:51:48;;;;;;;5.53;4.20;;;9.20;99.90;;;;;;5011975;28;20201;-73
2023/01/13 00:54:17;;;;;;;5.40;4.90;;;9.20;99.90;;;;;;5011918;28;20196;-73
2023/01/13 00:56:46;;;;;;;7.83;4.93;;;9.20;99.90;;;;;;5011939;28;20208;-73
2023/01/13 00:59:15;;;;;;;6.07;5.13;;;9.10;99.90;;;;;;5011539;28;20204;-73
2023/01/13 01:01:44;;;;;;;5.50;5.00;;;9.20;99.90;;;;;;5015608;28;20203;-74
2023/01/13 01:04:16;;;;;;;10.47;5.77;;;9.20;99.90;;;;;;5013167;28;20233;-74
2023/01/13 01:06:47;;;;;;;7.13;5.20;;;9.20;99.90;;;;;;4995818;28;20233;-74
2023/01/13 01:09:16;;;;;;;6.00;5.40;;;9.20;99.90;;;;;;5003993;28;20212;-74
2023/01/13 01:11:45;;;;;;;6.00;5.40;;;9.10;99.90;;;;;;5015307;28;20200;-73
2023/01/13 01:14:14;;;;;;;6.13;5.37;;;9.20;99.90;;;;;;5015301;28;20250;-71
2023/01/13 01:16:43;;;;;;;7.77;5.50;;;9.10;99.90;;;;;;5014119;28;20674;-72
2023/01/13 01:19:15;;;;;;;6.33;5.20;;;9.20;99.90;;;;;;5015229;28;20690;-72
2023/01/13 01:21:44;;;;;;;6.30;5.50;;;9.10;99.90;;;;;;5013312;28;20197;-72
2023/01/13 01:24:15;;;;;;;5.47;4.97;;;9.10;99.90;;;;;;4995282;28;20205;-72
2023/01/13 01:26:44;;;;;;;5.70;4.83;;;9.10;99.90;;;;;;4995244;28;20235;-73
2023/01/13 01:29:14;;;;;;;5.93;5.27;;;9.20;99.90;;;;;;4995354;28;20201;-73
2023/01/13 01:31:43;;;;;;;7.83;5.10;;;9.10;99.90;;;;;;4995275;28;20200;-73
2023/01/13 01:34:12;;;;;;;7.20;5.50;;;9.10;99.90;;;;;;4995182;28;20208;-73
2023/01/13 01:36:41;;;;;;;5.67;5.17;;;9.10;99.90;;;;;;4995161;28;20209;-73
2023/01/13 01:39:10;;;;;;;5.67;4.97;;;9.10;99.90;;;;;;4995037;28;20195;-73
2023/01/13 01:43:57;;;;;;;6.20;5.70;;;9.00;99.90;;;;;;4994982;28;20197;-72
2023/01/13 01:45:00;;;;;;;5.93;5.27;;;9.00;99.90;;;;;;4995098;28;20669;-72
2023/01/13 01:47:31;;;;;;;7.13;5.67;;;9.00;99.90;;;;;;4994971;28;20200;-72
2023/01/13 01:50:03;;;;;;;6.37;5.50;;;9.00;99.90;;;;;;4994953;28;20195;-73
2023/01/13 01:52:36;;;;;;;6.17;5.30;;;9.10;99.90;;;;;;4994861;28;20189;-72
2023/01/13 01:55:10;;;;;;;5.57;5.07;;;9.10;99.90;;;;;;4994762;28;20565;-73
2023/01/13 01:57:44;;;;;;;5.87;5.37;;;9.10;99.90;;;;;;4994756;28;20711;-73
2023/01/13 02:00:14;;;;;;;6.27;5.67;;;9.10;99.90;;;;;;4994748;28;20204;-74
2023/01/13 02:02:46;;;;;;;6.13;5.60;;;9.20;99.90;;;;;;4994639;28;20725;-73
2023/01/13 02:05:15;;;;;;;5.37;4.87;;;9.20;99.90;;;;;;4994444;28;20316;-73
2023/01/13 02:07:47;;;;;;;5.47;5.00;;;9.20;99.90;;;;;;4994594;28;20197;-72
2023/01/13 02:10:19;;;;;;;6.00;4.90;;;9.20;99.90;;;;;;4993945;28;20204;-73
2023/01/13 02:12:49;;;;;;;6.50;5.90;;;9.20;99.90;;;;;;4994086;28;20197;-73
2023/01/13 02:15:22;;;;;;;5.67;5.10;;;9.20;99.90;;;;;;4994433;28;20219;-73
2023/01/13 02:18:06;;;;;;;5.53;5.03;;;9.20;99.90;;;;;;4994377;28;20264;-73
2023/01/13 02:20:52;;;;;;;7.77;6.20;;;9.20;99.90;;;;;;4994375;28;20203;-73
2023/01/13 02:27:36;;;;;;;6.37;5.77;;;9.00;99.90;;;;;;4994267;28;20224;-73
2023/01/13 02:33:25;;;;;;;5.10;4.70;;;9.00;99.90;;;;;;4915148;29;20273;-72
2023/01/13 02:36:01;;;;;;;5.20;4.70;;;9.00;99.90;;;;;;4858993;29;20226;-73
2023/01/13 02:38:34;;;;;;;5.20;4.70;;;9.00;99.90;;;;;;4858733;29;20217;-73
2023/01/13 02:44:09;;;;;;;6.80;5.07;;;8.90;99.90;;;;;;4858335;29;20216;-74
2023/01/13 02:46:51;;;;;;;5.83;5.03;;;9.00;99.90;;;;;;4858682;29;20245;-73
2023/01/13 02:49:27;;;;;;;4.50;4.20;;;9.00;99.90;;;;;;4843571;29;20626;-74
2023/01/13 02:52:02;;;;;;;5.17;4.40;;;9.10;99.90;;;;;;4858671;29;20208;-73
2023/01/13 02:54:34;;;;;;;4.43;4.10;;;9.00;99.90;;;;;;4858550;29;20216;-74
2023/01/13 02:57:05;;;;;;;5.07;4.57;;;8.90;99.90;;;;;;4858652;29;20205;-73
2023/01/13 02:59:35;;;;;;;5.07;4.47;;;8.90;99.90;;;;;;4858571;29;20205;-73
2023/01/13 03:02:08;;;;;;;4.20;3.70;;;9.00;99.90;;;;;;4858439;29;20208;-73
2023/01/13 03:04:52;;;;;;;6.17;4.87;;;8.90;99.90;;;;;;4858517;29;20238;-73
2023/01/13 03:07:52;;;;;;;5.67;4.53;;;8.90;99.90;;;;;;4912558;28;20681;-73
2023/01/13 03:10:34;;;;;;;4.53;4.13;;;9.00;99.90;;;;;;4952635;28;20202;-73
2023/01/13 03:13:14;;;;;;;3.60;3.30;;;9.00;99.90;;;;;;4970582;28;20209;-73
2023/01/13 03:15:51;;;;;;;4.60;4.10;;;9.00;99.90;;;;;;4993402;28;20247;-72
2023/01/13 03:18:36;;;;;;;4.70;4.27;;;9.00;99.90;;;;;;4992162;28;20212;-72
2023/01/13 03:21:09;;;;;;;4.57;4.17;;;8.90;99.90;;;;;;4993375;28;20200;-73
2023/01/13 03:23:47;;;;;;;3.90;3.60;;;8.90;99.90;;;;;;4993005;28;20213;-73
2023/01/13 03:26:20;;;;;;;4.27;3.87;;;9.00;99.90;;;;;;4999029;28;20694;-73
2023/01/13 03:28:57;;;;;;;4.37;3.97;;;9.00;99.90;;;;;;5012835;28;20200;-74
2023/01/13 03:31:31;;;;;;;4.23;3.93;;;9.00;99.90;;;;;;5012803;28;20195;-73
2023/01/13 03:34:04;;;;;;;4.53;4.13;;;9.00;99.90;;;;;;5012839;28;20665;-73
2023/01/13 03:36:36;;;;;;;5.63;5.13;;;8.90;99.90;;;;;;5012633;28;20208;-73
2023/01/13 03:39:11;;;;;;;4.37;3.93;;;8.90;99.90;;;;;;5012622;28;20736;-73
2023/01/13 03:41:44;;;;;;;4.27;3.97;;;8.90;99.90;;;;;;5009397;28;20209;-73
2023/01/13 03:44:21;;;;;;;3.90;3.60;;;8.90;99.90;;;;;;4993324;28;20205;-73
2023/01/13 03:46:59;;;;;;;4.10;3.80;;;8.90;99.90;;;;;;5005608;28;20255;-73
2023/01/13 03:49:34;;;;;;;4.00;3.70;;;8.90;99.90;;;;;;5012742;28;20541;-75
2023/01/13 03:52:08;;;;;;;4.57;4.27;;;9.00;99.90;;;;;;5012520;28;20199;-74
2023/01/13 03:54:44;;;;;;;4.20;3.90;;;9.00;99.90;;;;;;4994688;28;20205;-74
2023/01/13 03:57:18;;;;;;;4.43;4.03;;;9.00;99.90;;;;;;4992916;28;20196;-74
2023/01/13 03:59:50;;;;;;;3.97;3.53;;;9.00;99.90;;;;;;4992830;28;20264;-74
2023/01/13 04:02:25;;;;;;;3.50;3.23;;;9.00;99.90;;;;;;4992877;28;20201;-74
2023/01/13 04:04:58;;;;;;;3.93;3.13;;;9.00;99.90;;;;;;4992587;28;20224;-74
2023/01/13 04:07:37;;;;;;;3.53;3.33;;;8.90;99.90;;;;;;5006401;28;20223;-73
2023/01/13 04:10:10;;;;;;;3.50;3.30;;;8.90;99.90;;;;;;5012187;28;20196;-74
2023/01/13 04:15:32;;;;;;;3.60;3.30;;;9.00;99.90;;;;;;5012462;28;20733;-73
2023/01/13 04:18:21;;;;;;;3.40;3.03;;;9.10;99.90;;;;;;5012279;28;20223;-74
2023/01/13 04:20:53;;;;;;;3.60;3.40;;;9.00;99.90;;;;;;5012307;28;20261;-73
2023/01/13 04:23:22;;;;;;;4.00;3.70;;;9.00;99.90;;;;;;5012215;28;20230;-73
2023/01/13 04:25:51;;;;;;;3.60;3.30;;;9.00;99.90;;;;;;5012145;28;20193;-73
2023/01/13 04:28:21;;;;;;;3.23;2.97;;;9.10;99.90;;;;;;5012138;28;20314;-73
2023/01/13 04:30:50;;;;;;;3.27;3.07;;;9.10;99.90;;;;;;5010992;28;20674;-73
2023/01/13 04:33:19;;;;;;;3.50;3.20;;;9.10;99.90;;;;;;5012202;28;20196;-73
2023/01/13 04:35:48;;;;;;;3.60;3.40;;;9.10;99.90;;;;;;5015282;28;20570;-75
2023/01/13 04:38:32;;;;;;;3.50;3.20;;;9.20;99.90;;;;;;5014860;28;20215;-74
2023/01/13 04:41:01;;;;;;;3.57;3.37;;;9.30;99.90;;;;;;5015815;28;20209;-73
2023/01/13 04:43:32;;;;;;;4.63;3.57;;;9.20;99.90;;;;;;5014843;28;20196;-73
2023/01/13 04:46:01;;;;;;;3.63;3.33;;;9.20;99.90;;;;;;5015657;28;20204;-74
2023/01/13 04:48:29;;;;;;;3.40;3.10;;;9.20;99.90;;;;;;5015642;28;20237;-74
2023/01/13 04:50:58;;;;;;;3.53;3.23;;;9.20;99.90;;;;;;5015675;28;20598;-73
2023/01/13 04:53:27;;;;;;;3.60;3.30;;;9.20;99.90;;;;;;5015454;28;20682;-73
2023/01/13 04:55:57;;;;;;;3.60;3.40;;;9.30;99.90;;;;;;5014116;28;20619;-73
2023/01/13 04:58:26;;;;;;;3.77;2.90;;;9.30;99.90;;;;;;5015502;28;20278;-74
2023/01/13 05:00:54;;;;;;;2.93;2.73;;;9.30;99.90;;;;;;5015444;28;20200;-74
2023/01/13 05:03:25;;;;;;;3.40;3.20;;;9.30;99.90;;;;;;5015375;28;20227;-74
2023/01/13 05:05:54;;;;;;;3.20;3.00;;;9.30;99.90;;;;;;5015407;28;20653;-74
2023/01/13 05:08:22;;;;;;;3.03;2.83;;;9.30;99.90;;;;;;5014637;28;20301;-74
2023/01/13 05:10:51;;;;;;;3.93;2.87;;;9.30;99.90;;;;;;5010026;28;20202;-73
2023/01/13 05:18:56;;;;;;;3.37;3.10;;;9.30;99.90;;;;;;5014247;28;20286;-71
2023/01/13 05:27:03;;;;;;;2.53;2.33;;;9.40;99.90;;;;;;4953300;29;20232;-73
2023/01/13 05:29:41;;;;;;;3.40;3.10;;;9.40;99.90;;;;;;4953426;28;20214;-72
2023/01/13 05:32:10;;;;;;;3.30;2.90;;;9.40;99.90;;;;;;4953893;28;20668;-73
2023/01/13 05:34:39;;;;;;;2.37;2.27;;;9.40;99.90;;;;;;4954300;29;20213;-74
2023/01/13 05:37:09;;;;;;;2.50;2.33;;;9.40;99.90;;;;;;4938337;29;20206;-74
2023/01/13 05:45:11;;;;;;;2.37;2.27;;;9.40;99.90;;;;;;4953869;28;20224;-73
2023/01/13 05:47:39;;;;;;;2.13;2.00;;;9.40;99.90;;;;;;4954068;29;20218;-74
2023/01/13 05:50:09;;;;;;;2.10;2.00;;;9.30;99.90;;;;;;4953995;28;20565;-74
2023/01/13 05:52:38;;;;;;;2.40;1.97;;;9.40;99.90;;;;;;4937999;29;20628;-74
2023/01/13 05:55:07;;;;;;;2.23;2.13;;;9.40;99.90;;;;;;4953772;28;20289;-74
2023/01/13 05:57:36;;;;;;;3.00;2.40;;;9.40;99.90;;;;;;4953857;28;20214;-74
2023/01/13 06:00:05;;;;;;;3.17;2.10;;;9.50;99.90;;;;;;4953808;29;20194;-73
2023/01/13 06:02:42;;;;;;;2.00;1.90;;;9.50;99.90;;;;;;4958035;28;20217;-73
2023/01/13 06:05:11;;;;;;;1.87;1.77;;;9.50;99.90;;;;;;5012687;28;20339;-72
2023/01/13 06:07:40;;;;;;;2.10;2.00;;;9.60;99.90;;;;;;5014016;28;20209;-72
2023/01/13 06:10:10;;;;;;;2.00;1.90;;;9.60;99.90;;;;;;5014022;28;20195;-72
2023/01/13 06:12:39;;;;;;;2.00;1.90;;;9.60;99.90;;;;;;5014121;28;20288;-72
2023/01/13 06:15:08;;;;;;;2.07;1.97;;;9.60;99.90;;;;;;5013890;28;20283;-73
2023/01/13 06:17:37;;;;;;;2.33;2.13;;;9.60;99.90;;;;;;5014068;28;20209;-70
2023/01/13 06:20:09;;;;;;;2.10;2.00;;;9.60;99.90;;;;;;5013717;28;20239;-71
2023/01/13 06:22:40;;;;;;;2.00;1.90;;;9.60;99.90;;;;;;5013706;28;20220;-72
2023/01/13 06:25:17;;;;;;;2.20;2.10;;;9.60;99.90;;;;;;5013848;28;20202;-73
2023/01/13 06:27:46;;;;;;;4.20;3.57;;;9.60;99.90;;;;;;5013674;28;20215;-72
2023/01/13 06:30:15;;;;;;;2.03;1.93;;;9.70;99.90;;;;;;5013794;28;20206;-73
2023/01/13 06:32:46;;;;;;;2.47;2.07;;;9.60;99.90;;;;;;5013526;28;20248;-73
2023/01/13 06:35:20;;;;;;;2.20;2.00;;;9.60;99.90;;;;;;5013682;28;20561;-73
2023/01/13 06:37:51;;;;;;;2.40;1.90;;;9.70;99.90;;;;;;5013674;28;20673;-73
2023/01/13 06:40:20;;;;;;;2.27;2.10;;;9.70;99.90;;;;;;5013517;28;20665;-73
2023/01/13 06:45:36;;;;;;;2.30;2.20;;;9.70;99.90;;;;;;5013385;28;20224;-72
2023/01/13 06:48:05;;;;;;;2.20;2.10;;;9.70;99.90;;;;;;5013406;28;20235;-72
2023/01/13 06:50:35;;;;;;;2.27;2.17;;;9.70;99.90;;;;;;5013332;28;20204;-73
2023/01/13 06:53:04;;;;;;;2.30;2.17;;;9.80;99.90;;;;;;5013303;28;20207;-70
2023/01/13 06:55:33;;;;;;;2.20;2.10;;;9.80;99.90;;;;;;5013241;28;20213;-71
2023/01/13 06:58:02;;;;;;;2.73;2.53;;;9.90;99.90;;;;;;5012789;28;20200;-72
2023/01/13 07:00:34;;;;;;;2.63;2.43;;;9.80;99.90;;;;;;5013327;28;20566;-71
2023/01/13 07:03:07;;;;;;;2.87;2.60;;;9.90;99.90;;;;;;5012864;28;20214;-72
2023/01/13 07:05:38;;;;;;;3.20;2.90;;;9.80;99.90;;;;;;5013033;28;20201;-71
2023/01/13 07:08:08;;;;;;;2.80;2.60;;;9.80;99.90;;;;;;5012871;28;20235;-71
2023/01/13 07:10:38;;;;;;;3.17;2.90;;;9.90;99.90;;;;;;5012916;28;20195;-70
2023/01/13 07:15:55;;;;;;;2.87;2.67;;;9.90;99.90;;;;;;5012830;28;20206;-74
2023/01/13 07:18:26;;;;;;;3.00;2.80;;;10.00;99.90;;;;;;5012987;28;20207;-76
2023/01/13 07:20:58;;;;;;;4.17;2.90;;;10.00;99.90;;;;;;5011592;28;20647;-76
2023/01/13 07:23:33;;;;;;;2.83;2.63;;;10.00;99.90;;;;;;5012737;28;20549;-71
2023/01/13 07:26:02;;;;;;;3.10;2.90;;;10.00;99.90;;;;;;5012507;28;20197;-71
2023/01/13 07:28:32;;;;;;;3.03;2.50;;;10.00;99.90;;;;;;5012543;28;20687;-72
2023/01/13 07:31:01;;;;;;;4.23;3.00;;;10.10;99.90;;;;;;5012655;28;20204;-72
2023/01/13 07:33:32;;;;;;;3.27;2.90;;;10.00;99.90;;;;;;5012641;28;20193;-73
2023/01/13 07:36:04;;;;;;;2.90;2.70;;;10.00;99.90;;;;;;5012714;28;20196;-74
2023/01/13 07:38:33;;;;;;;2.63;2.43;;;10.00;99.90;;;;;;5012436;28;20197;-72
2023/01/13 07:43:45;;;;;;;3.43;2.50;;;10.10;99.90;;;;;;5011389;28;20216;-74
2023/01/13 07:46:14;;;;;;;2.63;2.50;;;10.10;99.90;;;;;;5011232;28;20662;-74
2023/01/13 07:48:43;;;;;;;3.33;2.87;;;10.10;99.90;;;;;;5012398;28;20301;-74
2023/01/13 07:51:13;;;;;;;3.30;3.00;;;10.20;99.90;;;;;;5012471;28;20293;-75
2023/01/13 07:53:42;;;;;;;3.27;3.03;;;10.10;99.90;;;;;;5012562;28;20193;-74
2023/01/13 07:56:11;;;;;;;7.33;3.80;;;10.00;99.90;;;;;;5012313;28;20193;-74
2023/01/13 07:58:40;;;;;;;4.30;3.60;;;10.00;99.90;;;;;;5012351;28;20211;-74
2023/01/13 08:01:10;;;;;;;3.70;3.40;;;10.10;99.90;;;;;;5012310;28;20193;-75
2023/01/13 08:03:40;;;;;;;3.77;3.13;;;10.10;99.90;;;;;;5012208;28;20298;-74
2023/01/13 08:06:10;;;;;;;3.73;3.40;;;10.10;99.90;;;;;;5012249;28;20197;-73
2023/01/13 08:08:40;;;;;;;4.00;3.70;;;10.10;99.90;;;;;;5012153;28;20213;-73
2023/01/13 08:11:09;;;;;;;7.40;5.63;;;10.10;99.90;;;;;;5015993;28;20209;-74
2023/01/13 08:13:38;;;;;;;4.00;3.70;;;10.10;99.90;;;;;;5016272;28;20204;-74
2023/01/13 08:16:11;;;;;;;4.00;3.70;;;10.00;99.90;;;;;;5016137;28;20227;-73
2023/01/13 08:18:40;;;;;;;7.17;4.47;;;10.00;99.90;;;;;;5016148;28;20195;-72
2023/01/13 08:21:11;;;;;;;4.50;4.10;;;10.00;99.90;;;;;;5016011;28;20207;-71
2023/01/13 08:23:43;;;;;;;7.53;4.90;;;10.00;99.90;;;;;;5016014;28;20196;-71
2023/01/13 08:26:14;;;;;;;12.67;4.63;;;9.90;99.90;;;;;;5015835;28;20674;-71
2023/01/13 08:28:43;;;;;;;7.20;4.70;;;9.90;99.90;;;;;;5015903;28;20223;-72
2023/01/13 08:31:14;;;;;;;5.20;4.67;;;10.00;99.90;;;;;;5015998;28;20684;-71
2023/01/13 08:33:43;;;;;;;5.27;4.83;;;10.00;99.90;;;;;;5015922;28;20193;-74
2023/01/13 08:36:13;;;;;;;4.87;4.47;;;10.10;99.90;;;;;;5015861;28;20281;-74
2023/01/13 08:38:43;;;;;;;4.33;3.93;;;10.20;99.90;;;;;;5015638;28;20197;-75
2023/01/13 08:41:13;;;;;;;5.10;4.70;;;10.20;99.90;;;;;;5019375;23;20192;-74
2023/01/13 08:43:42;;;;;;;4.93;4.50;;;10.10;99.90;;;;;;4996213;28;20206;-74
2023/01/13 08:46:10;;;;;;;4.53;4.13;;;10.20;99.90;;;;;;4996030;28;20205;-75
2023/01/13 08:48:39;;;;;;;4.77;4.37;;;10.10;99.90;;;;;;4996057;28;20222;-74
2023/01/13 08:51:09;;;;;;;4.40;4.00;;;10.10;99.90;;;;;;4996077;28;20243;-74
2023/01/13 08:53:38;;;;;;;4.40;4.00;;;10.10;99.90;;;;;;4996036;28;20196;-74
2023/01/13 08:56:11;;;;;;;4.80;4.43;;;10.20;99.90;;;;;;4995888;28;20207;-75
2023/01/13 08:58:40;;;;;;;4.70;4.30;;;10.30;99.90;;;;;;4995821;28;20199;-72
2023/01/13 09:01:11;;;;;;;4.30;3.90;;;10.20;99.90;;;;;;4995909;28;20255;-72
2023/01/13 09:03:40;;;;;;;4.30;3.93;;;10.30;99.90;;;;;;4995809;28;20248;-73
2023/01/13 09:06:09;;;;;;;4.30;3.90;;;10.30;99.90;;;;;;4995696;28;20261;-73
2023/01/13 09:08:38;;;;;;;4.17;3.87;;;10.40;99.90;;;;;;4995615;28;20222;-73
2023/01/13 09:13:51;;;;;;;4.53;3.67;;;10.20;99.90;;;;;;4995492;28;20657;-73
2023/01/13 09:16:20;;;;;;;3.83;3.53;;;10.20;99.90;;;;;;4995607;28;20256;-71
2023/01/13 09:18:48;;;;;;;4.20;3.90;;;10.20;99.90;;;;;;4995500;28;20217;-73
2023/01/13 09:21:19;;;;;;;4.10;3.70;;;10.20;99.90;;;;;;4994972;28;20732;-72
2023/01/13 09:23:48;;;;;;;3.83;3.50;;;10.20;99.90;;;;;;4995323;28;20206;-71
2023/01/13 09:26:21;;;;;;;5.27;3.33;;;10.20;99.90;;;;;;4995556;28;20715;-71
2023/01/13 09:28:51;;;;;;;4.07;3.40;;;10.30;99.90;;;;;;4995196;28;20193;-71
2023/01/13 09:31:20;;;;;;;3.43;3.23;;;10.30;99.90;;;;;;4995255;28;20214;-71
2023/01/13 09:36:35;;;;;;;4.03;3.37;;;10.40;99.90;;;;;;4995200;28;20245;-72
2023/01/13 09:39:04;;;;;;;3.53;3.33;;;10.50;99.90;;;;;;4995118;28;20681;-71
2023/01/13 09:44:36;;;;;;;2.80;2.60;;;10.80;99.90;;;;;;4995051;28;20201;-71
2023/01/13 09:47:14;;;;;;;3.17;2.87;;;10.80;99.90;;;;;;4994768;28;20187;-71
2023/01/13 09:49:43;;;;;;;3.87;2.90;;;10.80;99.90;;;;;;4994853;28;20738;-71
2023/01/13 09:52:18;;;;;;;3.00;2.80;;;10.80;99.90;;;;;;4994713;28;20277;-71
2023/01/13 09:54:51;;;;;;;6.43;4.57;;;10.80;99.90;;;;;;4994718;28;20195;-71
2023/01/13 09:57:21;;;;;;;4.60;3.53;;;10.80;99.90;;;;;;4994683;28;20193;-71
2023/01/13 09:59:51;;;;;;;5.47;3.20;;;10.80;99.90;;;;;;4994890;28;20289;-71
2023/01/13 10:02:40;;;;;;;4.53;2.83;;;10.70;99.90;;;;;;4994843;28;20247;-72
2023/01/13 10:05:16;;;;;;;5.73;3.07;;;10.60;99.90;;;;;;4994655;28;20207;-72
2023/01/13 10:07:51;;;;;;;3.60;3.00;;;10.70;99.90;;;;;;4994733;28;20192;-72
2023/01/13 10:10:33;;;;;;;3.73;3.00;;;10.70;99.90;;;;;;4994573;28;20225;-72
2023/01/13 10:13:13;;;;;;;3.53;2.70;;;10.70;99.90;;;;;;4994440;28;20273;-72
2023/01/13 10:15:52;;;;;;;3.13;2.80;;;10.70;99.90;;;;;;4994445;28;20197;-71
2023/01/13 10:18:25;;;;;;;2.60;2.40;;;10.60;99.90;;;;;;4994436;28;20205;-71
2023/01/13 10:21:02;;;;;;;3.87;2.90;;;10.50;99.90;;;;;;4994255;28;20202;-70
2023/01/13 10:23:45;;;;;;;3.23;2.80;;;10.40;99.90;;;;;;4994359;28;20208;-71
2023/01/13 10:26:47;;;;;;;3.73;2.40;;;10.40;99.90;;;;;;4994251;28;20673;-75
2023/01/13 10:29:25;;;;;;;4.80;2.70;;;10.40;99.90;;;;;;4953224;29;20306;-73
2023/01/13 10:31:57;;;;;;;2.73;2.40;;;10.40;99.90;;;;;;4952349;28;20274;-72
2023/01/13 10:34:28;;;;;;;5.60;2.87;;;10.40;99.90;;;;;;4953174;29;20217;-73
2023/01/13 10:37:08;;;;;;;3.50;2.47;;;10.30;99.90;;;;;;4953262;29;20202;-73
2023/01/13 10:39:42;;;;;;;4.50;3.00;;;10.30;99.90;;;;;;4953239;29;20263;-75
2023/01/13 10:42:14;;;;;;;4.17;3.27;;;10.40;99.90;;;;;;4952746;29;20765;-76
2023/01/13 10:44:51;;;;;;;2.30;2.10;;;10.60;99.90;;;;;;4953189;29;20685;-74
2023/01/13 10:47:24;;;;;;;3.70;2.70;;;10.90;99.90;;;;;;4952994;29;20206;-76
2023/01/13 10:50:24;;;;;;;4.57;2.43;;;11.00;99.90;;;;;;4953014;29;20219;-73
2023/01/13 10:53:00;;;;;;;4.90;3.20;;;11.10;99.90;;;;;;4952910;29;20212;-75
2023/01/13 10:55:35;;;;;;;2.77;2.57;;;11.30;99.90;;;;;;4952909;29;20212;-75
2023/01/13 10:58:13;;;;;;;8.77;5.27;;;11.40;99.90;;;;;;4952875;29;20212;-76
2023/01/13 11:00:42;;;;;;;2.90;2.60;;;11.50;99.90;;;;;;4936826;29;20212;-74
2023/01/13 11:03:21;;;;;;;4.37;3.23;;;11.60;99.90;;;;;;4952730;29;20215;-75
2023/01/13 11:05:52;;;;;;;3.03;2.17;;;11.30;99.90;;;;;;4979676;28;20210;-74
2023/01/13 11:08:23;;;;;;;2.70;2.50;;;11.30;99.90;;;;;;4993542;28;20207;-75
2023/01/13 11:10:55;;;;;;;3.37;2.83;;;11.40;99.90;;;;;;4992027;28;20312;-74
2023/01/13 11:13:30;;;;;;;4.27;2.87;;;11.50;99.90;;;;;;4993246;28;20206;-74
2023/01/13 11:19:10;;;;;;;4.33;2.70;;;11.60;99.90;;;;;;4993344;28;20201;-73
2023/01/13 11:21:52;;;;;;;3.40;2.87;;;11.70;99.90;;;;;;4993423;28;20261;-74
2023/01/13 11:24:27;;;;;;;6.37;4.50;;;11.80;99.90;;;;;;4993213;28;20203;-73
2023/01/13 11:27:02;;;;;;;59.30;37.10;;;11.80;99.90;;;;;;4993129;28;20198;-73
2023/01/13 11:29:38;;;;;;;11.37;7.37;;;11.80;99.90;;;;;;4993236;28;20223;-76
2023/01/13 11:32:12;;;;;;;6.33;3.77;;;11.70;99.90;;;;;;4993123;28;20222;-74
2023/01/13 11:34:45;;;;;;;4.00;3.70;;;11.80;99.90;;;;;;4993157;28;20688;-76
2023/01/13 11:37:21;;;;;;;3.00;2.80;;;11.70;99.90;;;;;;4992963;28;20684;-74
2023/01/13 11:40:00;;;;;;;4.87;3.43;;;11.50;99.90;;;;;;4993146;28;20198;-72
2023/01/13 11:42:36;;;;;;;3.63;3.33;;;11.50;99.90;;;;;;4992842;28;20226;-73
2023/01/13 11:45:15;;;;;;;4.13;3.30;;;11.40;99.90;;;;;;4992999;28;20691;-74
2023/01/13 11:47:48;;;;;;;3.13;2.83;;;11.30;99.90;;;;;;4992988;28;20201;-73
2023/01/13 11:50:26;;;;;;;3.23;2.93;;;11.30;99.90;;;;;;4992920;28;20210;-74
2023/01/13 11:53:12;;;;;;;3.53;3.23;;;11.20;99.90;;;;;;4993004;28;20264;-73
2023/01/13 11:55:54;;;;;;;5.13;2.47;;;11.30;99.90;;;;;;4993122;28;20253;-73
2023/01/13 11:58:48;;;;;;;3.23;2.93;;;11.30;99.90;;;;;;4992721;28;20199;-73
2023/01/13 12:01:38;;;;;;;6.17;3.80;;;11.20;99.90;;;;;;4992917;28;20207;-73
2023/01/13 12:04:23;;;;;;;3.43;3.13;;;11.20;99.90;;;;;;4992922;28;20681;-72
2023/01/13 12:07:01;;;;;;;4.10;2.80;;;11.20;99.90;;;;;;4992852;28;20575;-73
2023/01/13 12:09:40;;;;;;;3.77;3.47;;;11.20;99.90;;;;;;4992768;28;20199;-73
2023/01/13 12:12:21;;;;;;;4.83;2.80;;;11.10;99.90;;;;;;4992557;28;20594;-74
2023/01/13 12:15:12;;;;;;;2.97;2.77;;;11.20;99.90;;;;;;4992771;28;20727;-73
2023/01/13 12:18:02;;;;;;;2.90;2.63;;;11.20;99.90;;;;;;4984358;28;20219;-74
2023/01/13 12:20:40;;;;;;;3.43;2.97;;;11.20;99.90;;;;;;4992686;28;20285;-74
2023/01/13 12:23:21;;;;;;;3.20;2.90;;;11.30;99.90;;;;;;4991452;28;20207;-74
2023/01/13 12:25:54;;;;;;;3.40;3.10;;;11.40;99.90;;;;;;4992522;28;20200;-74
2023/01/13 12:28:29;;;;;;;3.57;2.93;;;11.30;99.90;;;;;;4992723;28;20218;-73
2023/01/13 12:31:01;;;;;;;3.47;2.57;;;11.30;99.90;;;;;;4992503;28;20226;-73
2023/01/13 12:33:44;;;;;;;4.10;3.00;;;11.30;99.90;;;;;;4992512;28;20231;-74
2023/01/13 12:36:18;;;;;;;3.40;3.10;;;11.20;99.90;;;;;;4992519;28;20213;-74
2023/01/13 12:38:56;;;;;;;3.00;2.80;;;11.30;99.90;;;;;;4997423;23;20276;-74
2023/01/13 12:44:15;;;;;;;2.83;2.53;;;11.30;99.90;;;;;;4992894;28;20545;-74
2023/01/13 12:44:29;;;;;;;3.27;2.97;;;11.30;99.90;;;;;;4992421;28;20187;-72
2023/01/13 12:47:00;;;;;;;4.27;3.33;;;11.40;99.90;;;;;;4992436;28;20199;-75
2023/01/13 12:49:30;;;;;;;3.10;2.73;;;11.50;99.90;;;;;;4992463;28;20199;-75
2023/01/13 12:52:33;;;;;;;;;;;;;;;;;;;;;
2023/01/13 12:55:16;;;;;;;7.97;3.80;;;11.30;99.90;;;;;;4992855;28;20195;-71
2023/01/13 12:58:17;;;;;;;3.37;3.07;;;11.10;99.90;;;;;;4995916;28;20194;-74
2023/01/13 13:00:58;;;;;;;4.43;2.80;;;11.10;99.90;;;;;;4996133;28;20543;-75
2023/01/13 13:03:33;;;;;;;4.97;3.97;;;11.10;99.90;;;;;;4995875;28;20199;-74
2023/01/13 13:06:12;;;;;;;4.03;3.27;;;11.10;99.90;;;;;;4995842;28;20322;-74
2023/01/13 13:09:04;;;;;;;4.50;3.60;;;11.10;99.90;;;;;;4995922;28;20199;-74
2023/01/13 13:15:05;;;;;;;5.90;3.50;;;11.10;99.90;;;;;;4995711;28;20199;-73
2023/01/13 13:17:41;;;;;;;6.23;3.40;;;10.90;99.90;;;;;;4995518;28;20238;-73
2023/01/13 13:20:43;;;;;;;5.53;3.47;;;10.80;99.90;;;;;;4995573;28;20235;-73
2023/01/13 13:23:29;;;;;;;5.57;3.40;;;10.80;99.90;;;;;;4973900;28;20211;-73
2023/01/13 13:26:06;;;;;;;3.63;3.30;;;10.80;99.90;;;;;;4973883;28;20203;-73
2023/01/13 13:28:40;;;;;;;5.03;3.53;;;10.90;99.90;;;;;;4973691;28;20213;-72
2023/01/13 13:31:27;;;;;;;8.13;3.30;;;10.80;99.90;;;;;;4973781;28;20211;-73
2023/01/13 13:34:24;;;;;;;6.60;4.30;;;10.80;99.90;;;;;;4973673;28;20215;-73
2023/01/13 13:37:19;;;;;;;5.93;3.87;;;10.70;99.90;;;;;;4973721;28;20222;-73
2023/01/13 13:48:23;;;;;;;12.17;6.47;;;10.60;99.90;;;;;;4934899;29;20669;-74
2023/01/13 13:50:56;;;;;;;9.33;5.97;;;10.60;99.90;;;;;;4935072;29;20198;-74
2023/01/13 13:53:29;;;;;;;13.70;6.20;;;10.50;99.90;;;;;;4934762;29;20766;-74
